Airfield :
LOGIN :

Register | Disclaimer

   EN    FR    IT 

 










Legend :    VFR   Marginal VFR   IFR   Intensive IFR   Very Intensive IFR
Visi :
Ceiling :
>= 8 km
>= 3000ft
5 to 8 km
1000 to 3000 ft
1500m to 5 km
500 to 1000 ft
800 to 1500m
200 to 500 ft
< 800m
< 200 ft
Symbols :   Thunderstorms  Fog  Heavy snow  Heavy precipitations  Wind > 20 kt
SIGMETs :     Misc.  Thunderstorms  Icing  Turbulence  Mountain Waves  Volcanic Ashes







- Airport Elevation : 1020 ft
- IATA code : ILZ


LZZI - Žilina

CURRENT METAR :
  • 212300Z VRB02KT 9999 -RA FEW006 SCT028 OVC046 09/09 Q1016

EXPIRED METARs :
  • 212230Z VRB02KT 8000 -RA OVC024 09/09 Q1016
  • 212200Z VRB01KT 8000 -RA FEW027 SCT043 OVC049 09/08 Q1016
  • 212130Z VRB01KT 9999 -RA SCT030 BKN049 OVC058 09/08 Q1016
  • 212100Z VRB02KT 9999 -RA SCT031 OVC081 09/08 Q1016
  • 212030Z VRB01KT 9999 -RA FEW026 SCT031 BKN056 09/08 Q1016
  • 212000Z VRB02KT 9999 -RA SCT029 OVC037 09/08 Q1016

TAF TAF LZZI
Valid from the 21 at 21:00 until the 22 at 06:00 UTC


212000Z 2121/2206 03003KT 9999 -RA SCT010 BKN030 OVC050
TEMPO 2121/2123 4000 RA BKN007 OVC025
BECMG 2200/2202 VRB02KT 1500 -RA SCT002 BKN005 OVC070
No reported NOTAMs for that airfield.



MET'MAP, your aeronautical weather chart ! - Copyright ORBIFLY December 2007 - Disclaimer

ORBIFLY MET'MAP TEAM :

Programming & Development : Alexandra Zaïnal
Concept & Development : Baudouin d'Aumeries
Co-Development & Prog : Marc-Olivier Méhu
Technical & hardware support : Manuel Goepfert

Contact : metmap@orbifly.com




SOURCES & CREDITS :

   NOAA